sensor_id;sensor_type;location;lat;lon;timestamp;pressure;altitude;pressure_sealevel;temperature;humidity
32761;BME280;19126;47.472;7.850;2023-02-15T00:01:08;97841.75;;;-2.33;71.26
32761;BME280;19126;47.472;7.850;2023-02-15T00:03:35;97846.31;;;-2.40;72.60
32761;BME280;19126;47.472;7.850;2023-02-15T00:06:03;97844.66;;;-2.41;72.42
32761;BME280;19126;47.472;7.850;2023-02-15T00:08:30;97838.53;;;-2.39;71.22
32761;BME280;19126;47.472;7.850;2023-02-15T00:11:05;97843.81;;;-2.42;70.64
32761;BME280;19126;47.472;7.850;2023-02-15T00:13:32;97836.94;;;-2.41;70.60
32761;BME280;19126;47.472;7.850;2023-02-15T00:16:06;97838.78;;;-2.45;69.94
32761;BME280;19126;47.472;7.850;2023-02-15T00:18:35;97829.34;;;-2.44;69.79
32761;BME280;19126;47.472;7.850;2023-02-15T00:21:03;97832.03;;;-2.47;70.67
32761;BME280;19126;47.472;7.850;2023-02-15T00:23:31;97841.47;;;-2.48;71.21
32761;BME280;19126;47.472;7.850;2023-02-15T00:26:06;97830.50;;;-2.52;71.29
32761;BME280;19126;47.472;7.850;2023-02-15T00:28:33;97833.31;;;-2.58;71.42
32761;BME280;19126;47.472;7.850;2023-02-15T00:31:07;97834.22;;;-2.59;72.35
32761;BME280;19126;47.472;7.850;2023-02-15T00:33:37;97831.69;;;-2.60;70.02
32761;BME280;19126;47.472;7.850;2023-02-15T00:36:05;97825.59;;;-2.58;69.60
32761;BME280;19126;47.472;7.850;2023-02-15T00:38:33;97823.28;;;-2.64;70.10
32761;BME280;19126;47.472;7.850;2023-02-15T00:41:02;97826.75;;;-2.65;69.89
32761;BME280;19126;47.472;7.850;2023-02-15T00:43:30;97821.69;;;-2.68;70.02
32761;BME280;19126;47.472;7.850;2023-02-15T00:45:58;97819.19;;;-2.70;70.25
32761;BME280;19126;47.472;7.850;2023-02-15T01:19:32;97816.00;;;-2.76;67.40
32761;BME280;19126;47.472;7.850;2023-02-15T01:22:00;97822.59;;;-2.69;68.26
32761;BME280;19126;47.472;7.850;2023-02-15T01:24:27;97817.56;;;-2.72;68.29
32761;BME280;19126;47.472;7.850;2023-02-15T01:26:54;97813.97;;;-2.68;68.13
32761;BME280;19126;47.472;7.850;2023-02-15T01:29:21;97810.50;;;-2.67;66.80
32761;BME280;19126;47.472;7.850;2023-02-15T01:31:48;97810.56;;;-2.69;66.98
32761;BME280;19126;47.472;7.850;2023-02-15T01:34:15;97813.03;;;-2.66;66.82
32761;BME280;19126;47.472;7.850;2023-02-15T01:36:43;97819.13;;;-2.68;66.68
32761;BME280;19126;47.472;7.850;2023-02-15T01:39:10;97821.66;;;-2.67;67.33
32761;BME280;19126;47.472;7.850;2023-02-15T01:41:38;97817.22;;;-2.63;66.89
32761;BME280;19126;47.472;7.850;2023-02-15T01:47:01;97814.69;;;-2.65;67.02
32761;BME280;19126;47.472;7.850;2023-02-15T01:49:29;97820.75;;;-2.66;66.94
32761;BME280;19126;47.472;7.850;2023-02-15T01:51:57;97821.88;;;-2.73;68.56
32761;BME280;19126;47.472;7.850;2023-02-15T01:54:27;97816.88;;;-2.76;67.96
32761;BME280;19126;47.472;7.850;2023-02-15T01:56:59;97822.25;;;-2.82;68.75
32761;BME280;19126;47.472;7.850;2023-02-15T01:59:29;97819.72;;;-2.84;69.34
32761;BME280;19126;47.472;7.850;2023-02-15T02:01:58;97819.81;;;-2.85;69.17
32761;BME280;19126;47.472;7.850;2023-02-15T02:04:29;97818.13;;;-2.86;68.71
32761;BME280;19126;47.472;7.850;2023-02-15T02:06:59;97811.69;;;-2.97;69.05
32761;BME280;19126;47.472;7.850;2023-02-15T02:09:29;97821.00;;;-2.94;69.20
32761;BME280;19126;47.472;7.850;2023-02-15T02:12:02;97811.06;;;-3.03;68.67
32761;BME280;19126;47.472;7.850;2023-02-15T02:14:32;97807.84;;;-3.09;69.00
32761;BME280;19126;47.472;7.850;2023-02-15T02:17:11;97818.19;;;-3.10;68.84
32761;BME280;19126;47.472;7.850;2023-02-15T02:23:18;97803.06;;;-3.18;69.46
32761;BME280;19126;47.472;7.850;2023-02-15T02:29:13;97812.16;;;-3.09;66.48
32761;BME280;19126;47.472;7.850;2023-02-15T02:34:48;97803.41;;;-3.27;69.09
32761;BME280;19126;47.472;7.850;2023-02-15T02:37:20;97807.66;;;-3.26;68.11
32761;BME280;19126;47.472;7.850;2023-02-15T02:39:59;97806.75;;;-3.25;68.09
32761;BME280;19126;47.472;7.850;2023-02-15T02:42:34;97812.97;;;-3.31;67.27
32761;BME280;19126;47.472;7.850;2023-02-15T02:45:08;97807.22;;;-3.38;67.53
32761;BME280;19126;47.472;7.850;2023-02-15T02:47:40;97815.78;;;-3.37;67.07
32761;BME280;19126;47.472;7.850;2023-02-15T02:50:14;97815.72;;;-3.35;66.56
32761;BME280;19126;47.472;7.850;2023-02-15T02:52:46;97810.69;;;-3.39;67.18
32761;BME280;19126;47.472;7.850;2023-02-15T02:55:22;97804.06;;;-3.44;67.63
32761;BME280;19126;47.472;7.850;2023-02-15T02:58:00;97812.69;;;-3.47;67.94
32761;BME280;19126;47.472;7.850;2023-02-15T03:00:32;97804.22;;;-3.49;67.96
32761;BME280;19126;47.472;7.850;2023-02-15T03:03:09;97809.25;;;-3.46;68.15
32761;BME280;19126;47.472;7.850;2023-02-15T03:06:01;97809.97;;;-3.42;66.49
32761;BME280;19126;47.472;7.850;2023-02-15T03:08:40;97805.66;;;-3.42;65.92
32761;BME280;19126;47.472;7.850;2023-02-15T03:11:14;97805.09;;;-3.50;66.32
32761;BME280;19126;47.472;7.850;2023-02-15T03:13:42;97806.06;;;-3.53;66.51
32761;BME280;19126;47.472;7.850;2023-02-15T03:16:16;97797.81;;;-3.61;66.58
32761;BME280;19126;47.472;7.850;2023-02-15T03:19:00;97805.44;;;-3.59;66.50
32761;BME280;19126;47.472;7.850;2023-02-15T03:21:37;97805.63;;;-3.64;67.44
32761;BME280;19126;47.472;7.850;2023-02-15T03:24:08;97806.63;;;-3.68;67.04
32761;BME280;19126;47.472;7.850;2023-02-15T03:26:42;97799.97;;;-3.74;66.93
32761;BME280;19126;47.472;7.850;2023-02-15T03:29:10;97809.38;;;-3.73;67.90
32761;BME280;19126;47.472;7.850;2023-02-15T03:31:42;97803.44;;;-3.75;67.17
32761;BME280;19126;47.472;7.850;2023-02-15T03:34:13;97806.88;;;-3.74;67.62
32761;BME280;19126;47.472;7.850;2023-02-15T03:36:50;97801.00;;;-3.78;66.92
32761;BME280;19126;47.472;7.850;2023-02-15T03:39:29;97803.19;;;-3.67;67.19
32761;BME280;19126;47.472;7.850;2023-02-15T03:42:08;97808.22;;;-3.64;65.55
32761;BME280;19126;47.472;7.850;2023-02-15T03:44:43;97801.41;;;-3.65;65.36
32761;BME280;19126;47.472;7.850;2023-02-15T03:47:17;97802.41;;;-3.69;66.21
32761;BME280;19126;47.472;7.850;2023-02-15T03:49:50;97803.44;;;-3.75;67.30
32761;BME280;19126;47.472;7.850;2023-02-15T03:52:21;97806.91;;;-3.76;66.82
32761;BME280;19126;47.472;7.850;2023-02-15T03:54:50;97803.75;;;-3.83;67.24
32761;BME280;19126;47.472;7.850;2023-02-15T03:57:24;97797.94;;;-3.88;67.00
32761;BME280;19126;47.472;7.850;2023-02-15T04:00:14;97807.34;;;-3.88;66.54
32761;BME280;19126;47.472;7.850;2023-02-15T04:03:09;97812.81;;;-3.98;67.74
32761;BME280;19126;47.472;7.850;2023-02-15T04:05:38;97808.59;;;-4.00;68.13
32761;BME280;19126;47.472;7.850;2023-02-15T04:08:06;97801.09;;;-4.05;67.65
32761;BME280;19126;47.472;7.850;2023-02-15T04:10:36;97811.59;;;-4.13;68.34
32761;BME280;19126;47.472;7.850;2023-02-15T04:13:18;97802.22;;;-4.14;68.53
32761;BME280;19126;47.472;7.850;2023-02-15T04:15:46;97801.41;;;-4.14;68.38
32761;BME280;19126;47.472;7.850;2023-02-15T04:18:31;97801.44;;;-4.16;68.60
32761;BME280;19126;47.472;7.850;2023-02-15T04:21:18;97800.72;;;-4.19;68.55
32761;BME280;19126;47.472;7.850;2023-02-15T04:24:09;97811.13;;;-4.24;69.26
32761;BME280;19126;47.472;7.850;2023-02-15T04:26:55;97806.84;;;-4.23;68.72
32761;BME280;19126;47.472;7.850;2023-02-15T04:29:28;97808.78;;;-4.30;68.40
32761;BME280;19126;47.472;7.850;2023-02-15T04:32:02;97798.69;;;-4.35;68.81
32761;BME280;19126;47.472;7.850;2023-02-15T04:34:31;97798.63;;;-4.33;68.44
32761;BME280;19126;47.472;7.850;2023-02-15T04:37:01;97804.59;;;-4.33;67.92
32761;BME280;19126;47.472;7.850;2023-02-15T04:39:32;97809.84;;;-4.36;67.91
32761;BME280;19126;47.472;7.850;2023-02-15T04:42:04;97808.38;;;-4.43;69.66
32761;BME280;19126;47.472;7.850;2023-02-15T04:44:41;97811.81;;;-4.44;69.67
32761;BME280;19126;47.472;7.850;2023-02-15T04:47:11;97810.94;;;-4.43;68.45
32761;BME280;19126;47.472;7.850;2023-02-15T04:49:45;97810.25;;;-4.48;68.17
32761;BME280;19126;47.472;7.850;2023-02-15T04:52:12;97811.13;;;-4.49;68.82
32761;BME280;19126;47.472;7.850;2023-02-15T04:54:47;97811.22;;;-4.52;69.16
32761;BME280;19126;47.472;7.850;2023-02-15T04:57:19;97806.13;;;-4.54;69.46
32761;BME280;19126;47.472;7.850;2023-02-15T04:59:49;97812.06;;;-4.52;68.46
32761;BME280;19126;47.472;7.850;2023-02-15T05:02:19;97803.94;;;-4.65;68.25
32761;BME280;19126;47.472;7.850;2023-02-15T05:04:48;97808.81;;;-4.57;67.79
32761;BME280;19126;47.472;7.850;2023-02-15T05:07:15;97809.75;;;-4.60;67.44
32761;BME280;19126;47.472;7.850;2023-02-15T05:09:52;97800.44;;;-4.62;67.52
32761;BME280;19126;47.472;7.850;2023-02-15T05:12:24;97802.31;;;-4.67;66.54
32761;BME280;19126;47.472;7.850;2023-02-15T05:14:54;97801.41;;;-4.66;66.85
32761;BME280;19126;47.472;7.850;2023-02-15T05:17:21;97807.59;;;-4.72;66.10
32761;BME280;19126;47.472;7.850;2023-02-15T05:19:48;97808.47;;;-4.73;66.76
32761;BME280;19126;47.472;7.850;2023-02-15T05:22:24;97816.06;;;-4.70;66.23
32761;BME280;19126;47.472;7.850;2023-02-15T05:24:56;97811.94;;;-4.74;65.78
32761;BME280;19126;47.472;7.850;2023-02-15T05:27:43;97810.25;;;-4.75;64.25
32761;BME280;19126;47.472;7.850;2023-02-15T05:30:30;97814.53;;;-4.76;64.13
32761;BME280;19126;47.472;7.850;2023-02-15T05:32:58;97813.66;;;-4.75;63.63
32761;BME280;19126;47.472;7.850;2023-02-15T05:35:25;97815.38;;;-4.75;63.20
32761;BME280;19126;47.472;7.850;2023-02-15T05:37:56;97815.50;;;-4.78;63.04
32761;BME280;19126;47.472;7.850;2023-02-15T05:40:29;97811.25;;;-4.79;62.51
32761;BME280;19126;47.472;7.850;2023-02-15T05:42:56;97812.25;;;-4.85;62.22
32761;BME280;19126;47.472;7.850;2023-02-15T05:45:28;97818.19;;;-4.83;63.03
32761;BME280;19126;47.472;7.850;2023-02-15T05:47:55;97825.88;;;-4.83;62.21
32761;BME280;19126;47.472;7.850;2023-02-15T05:50:26;97825.06;;;-4.85;61.77
32761;BME280;19126;47.472;7.850;2023-02-15T05:52:54;97829.22;;;-4.81;61.06
32761;BME280;19126;47.472;7.850;2023-02-15T05:55:22;97826.72;;;-4.82;60.84
32761;BME280;19126;47.472;7.850;2023-02-15T05:57:52;97822.41;;;-4.82;60.93
32761;BME280;19126;47.472;7.850;2023-02-15T06:00:20;97825.03;;;-4.83;60.66
32761;BME280;19126;47.472;7.850;2023-02-15T06:02:47;97840.38;;;-4.82;60.56
32761;BME280;19126;47.472;7.850;2023-02-15T06:05:14;97827.72;;;-4.87;60.57
32761;BME280;19126;47.472;7.850;2023-02-15T06:07:43;97839.56;;;-4.84;60.55
32761;BME280;19126;47.472;7.850;2023-02-15T06:10:10;97834.53;;;-4.87;60.78
32761;BME280;19126;47.472;7.850;2023-02-15T06:12:37;97840.81;;;-4.96;61.95
32761;BME280;19126;47.472;7.850;2023-02-15T06:15:11;97830.56;;;-4.96;62.24
32761;BME280;19126;47.472;7.850;2023-02-15T06:17:43;97834.78;;;-4.95;61.90
32761;BME280;19126;47.472;7.850;2023-02-15T06:20:14;97827.19;;;-4.98;62.09
32761;BME280;19126;47.472;7.850;2023-02-15T06:22:54;97828.88;;;-4.97;62.11
32761;BME280;19126;47.472;7.850;2023-02-15T06:25:23;97834.09;;;-5.00;63.22
32761;BME280;19126;47.472;7.850;2023-02-15T06:27:52;97831.63;;;-5.03;62.75
32761;BME280;19126;47.472;7.850;2023-02-15T06:30:21;97837.75;;;-5.09;63.15
32761;BME280;19126;47.472;7.850;2023-02-15T06:32:51;97834.47;;;-5.12;63.87
32761;BME280;19126;47.472;7.850;2023-02-15T06:35:18;97836.19;;;-5.13;63.40
32761;BME280;19126;47.472;7.850;2023-02-15T06:37:48;97840.38;;;-5.10;63.32
32761;BME280;19126;47.472;7.850;2023-02-15T06:40:18;97846.22;;;-5.05;63.31
32761;BME280;19126;47.472;7.850;2023-02-15T06:43:00;97835.22;;;-5.09;62.36
32761;BME280;19126;47.472;7.850;2023-02-15T06:45:28;97845.41;;;-5.07;62.39
32761;BME280;19126;47.472;7.850;2023-02-15T06:47:56;97840.34;;;-5.09;62.73
32761;BME280;19126;47.472;7.850;2023-02-15T06:50:27;97845.50;;;-5.10;62.93
32761;BME280;19126;47.472;7.850;2023-02-15T06:52:56;97839.44;;;-5.08;63.38
32761;BME280;19126;47.472;7.850;2023-02-15T06:55:41;97845.41;;;-5.07;63.44
32761;BME280;19126;47.472;7.850;2023-02-15T06:58:09;97844.53;;;-5.06;62.51
32761;BME280;19126;47.472;7.850;2023-02-15T07:00:42;97847.81;;;-5.03;62.26
32761;BME280;19126;47.472;7.850;2023-02-15T07:03:14;97847.66;;;-4.96;61.91
32761;BME280;19126;47.472;7.850;2023-02-15T07:05:46;97838.38;;;-5.01;62.36
32761;BME280;19126;47.472;7.850;2023-02-15T07:08:19;97843.50;;;-5.01;63.34
32761;BME280;19126;47.472;7.850;2023-02-15T07:10:46;97855.94;;;-4.88;63.40
32761;BME280;19126;47.472;7.850;2023-02-15T07:13:15;97850.88;;;-4.90;63.07
32761;BME280;19126;47.472;7.850;2023-02-15T07:15:46;97855.84;;;-4.85;62.88
32761;BME280;19126;47.472;7.850;2023-02-15T07:18:15;97857.59;;;-4.87;63.01
32761;BME280;19126;47.472;7.850;2023-02-15T07:20:43;97867.56;;;-4.78;62.56
32761;BME280;19126;47.472;7.850;2023-02-15T07:23:10;97854.16;;;-4.58;61.57
32761;BME280;19126;47.472;7.850;2023-02-15T07:25:37;97859.28;;;-4.32;59.66
32761;BME280;19126;47.472;7.850;2023-02-15T07:28:04;97863.00;;;-3.89;57.82
32761;BME280;19126;47.472;7.850;2023-02-15T07:30:35;97863.91;;;-3.18;55.38
32761;BME280;19126;47.472;7.850;2023-02-15T07:33:08;97861.28;;;-1.67;54.67
32761;BME280;19126;47.472;7.850;2023-02-15T07:35:54;97853.50;;;1.64;75.52
32761;BME280;19126;47.472;7.850;2023-02-15T07:38:51;97859.75;;;3.21;100.00
32761;BME280;19126;47.472;7.850;2023-02-15T07:41:18;97852.41;;;2.57;100.00
32761;BME280;19126;47.472;7.850;2023-02-15T07:43:51;97863.88;;;1.48;100.00
32761;BME280;19126;47.472;7.850;2023-02-15T07:46:18;97849.47;;;1.12;100.00
32761;BME280;19126;47.472;7.850;2023-02-15T07:48:47;97860.56;;;0.82;100.00
32761;BME280;19126;47.472;7.850;2023-02-15T07:51:18;97846.84;;;0.48;100.00
32761;BME280;19126;47.472;7.850;2023-02-15T07:53:45;97852.25;;;0.43;100.00
32761;BME280;19126;47.472;7.850;2023-02-15T07:56:13;97858.66;;;0.36;100.00
32761;BME280;19126;47.472;7.850;2023-02-15T07:58:43;97861.22;;;0.69;100.00
32761;BME280;19126;47.472;7.850;2023-02-15T08:01:28;97856.22;;;0.66;100.00
32761;BME280;19126;47.472;7.850;2023-02-15T08:04:00;97854.22;;;0.87;100.00
32761;BME280;19126;47.472;7.850;2023-02-15T08:06:34;97850.34;;;0.63;100.00
32761;BME280;19126;47.472;7.850;2023-02-15T08:09:08;97856.38;;;0.79;100.00
32761;BME280;19126;47.472;7.850;2023-02-15T08:11:37;97854.75;;;0.94;100.00
32761;BME280;19126;47.472;7.850;2023-02-15T08:14:07;97841.69;;;0.96;100.00
32761;BME280;19126;47.472;7.850;2023-02-15T08:16:35;97841.34;;;0.70;100.00
32761;BME280;19126;47.472;7.850;2023-02-15T08:19:08;97832.69;;;0.55;100.00
32761;BME280;19126;47.472;7.850;2023-02-15T08:21:40;97840.19;;;0.60;100.00
32761;BME280;19126;47.472;7.850;2023-02-15T08:24:15;97833.09;;;1.11;100.00
32761;BME280;19126;47.472;7.850;2023-02-15T08:26:49;97834.53;;;1.33;100.00
32761;BME280;19126;47.472;7.850;2023-02-15T08:29:18;97830.63;;;1.56;100.00
32761;BME280;19126;47.472;7.850;2023-02-15T08:31:49;97824.91;;;1.66;100.00
32761;BME280;19126;47.472;7.850;2023-02-15T08:34:20;97818.13;;;1.49;100.00
32761;BME280;19126;47.472;7.850;2023-02-15T08:36:50;97836.66;;;2.02;100.00
32761;BME280;19126;47.472;7.850;2023-02-15T08:39:26;97830.38;;;1.45;100.00
32761;BME280;19126;47.472;7.850;2023-02-15T08:41:57;97834.75;;;1.75;100.00
32761;BME280;19126;47.472;7.850;2023-02-15T08:44:26;97827.53;;;2.25;100.00
32761;BME280;19126;47.472;7.850;2023-02-15T08:46:55;97830.00;;;2.12;100.00
32761;BME280;19126;47.472;7.850;2023-02-15T08:49:26;97829.56;;;2.34;100.00
32761;BME280;19126;47.472;7.850;2023-02-15T08:51:55;97825.94;;;2.66;100.00
32761;BME280;19126;47.472;7.850;2023-02-15T08:54:22;97819.25;;;2.62;100.00
32761;BME280;19126;47.472;7.850;2023-02-15T08:56:56;97822.41;;;3.09;100.00
32761;BME280;19126;47.472;7.850;2023-02-15T08:59:25;97812.78;;;3.39;100.00
32761;BME280;19126;47.472;7.850;2023-02-15T09:01:53;97817.97;;;3.51;100.00
32761;BME280;19126;47.472;7.850;2023-02-15T09:04:21;97812.84;;;3.64;100.00
32761;BME280;19126;47.472;7.850;2023-02-15T09:06:52;97817.13;;;3.91;100.00
32761;BME280;19126;47.472;7.850;2023-02-15T09:09:23;97809.78;;;3.98;99.38
32761;BME280;19126;47.472;7.850;2023-02-15T09:11:51;97809.34;;;4.04;99.30
32761;BME280;19126;47.472;7.850;2023-02-15T09:14:20;97811.72;;;3.94;97.51
32761;BME280;19126;47.472;7.850;2023-02-15T09:16:55;97813.25;;;3.71;100.00
32761;BME280;19126;47.472;7.850;2023-02-15T09:19:31;97808.28;;;3.81;100.00
32761;BME280;19126;47.472;7.850;2023-02-15T09:22:00;97806.44;;;4.09;100.00
32761;BME280;19126;47.472;7.850;2023-02-15T09:24:31;97806.03;;;4.02;100.00
32761;BME280;19126;47.472;7.850;2023-02-15T09:27:01;97798.09;;;4.30;100.00
32761;BME280;19126;47.472;7.850;2023-02-15T09:29:30;97794.56;;;4.31;99.51
32761;BME280;19126;47.472;7.850;2023-02-15T09:32:05;97793.28;;;4.62;97.74
32761;BME280;19126;47.472;7.850;2023-02-15T09:34:34;97792.78;;;4.81;97.38
32761;BME280;19126;47.472;7.850;2023-02-15T09:37:04;97795.38;;;4.44;95.14
32761;BME280;19126;47.472;7.850;2023-02-15T09:39:32;97792.09;;;4.29;98.74
32761;BME280;19126;47.472;7.850;2023-02-15T09:42:21;97789.66;;;4.39;100.00
32761;BME280;19126;47.472;7.850;2023-02-15T09:45:13;97785.47;;;4.62;99.39
32761;BME280;19126;47.472;7.850;2023-02-15T09:48:23;97774.97;;;5.12;98.50
32761;BME280;19126;47.472;7.850;2023-02-15T09:54:20;97781.44;;;5.55;95.57
32761;BME280;19126;47.472;7.850;2023-02-15T09:56:58;97772.69;;;5.68;94.20
32761;BME280;19126;47.472;7.850;2023-02-15T09:59:34;97785.53;;;5.82;92.69
32761;BME280;19126;47.472;7.850;2023-02-15T10:02:11;97770.53;;;5.97;93.10
32761;BME280;19126;47.472;7.850;2023-02-15T10:04:57;97793.69;;;6.13;91.02
32761;BME280;19126;47.472;7.850;2023-02-15T10:07:48;97783.72;;;6.19;90.25
32761;BME280;19126;47.472;7.850;2023-02-15T10:10:30;97772.94;;;6.35;92.03
32761;BME280;19126;47.472;7.850;2023-02-15T10:13:13;97765.94;;;6.24;91.90
32761;BME280;19126;47.472;7.850;2023-02-15T10:16:07;97774.13;;;6.19;93.76
32761;BME280;19126;47.472;7.850;2023-02-15T10:18:49;97769.94;;;6.05;94.26
32761;BME280;19126;47.472;7.850;2023-02-15T10:21:31;97759.97;;;5.40;95.14
32761;BME280;19126;47.472;7.850;2023-02-15T10:24:23;97765.97;;;5.65;96.31
32761;BME280;19126;47.472;7.850;2023-02-15T10:26:55;97764.81;;;5.92;96.50
32761;BME280;19126;47.472;7.850;2023-02-15T10:29:29;97767.81;;;6.22;95.44
32761;BME280;19126;47.472;7.850;2023-02-15T10:32:04;97758.34;;;6.21;93.37
32761;BME280;19126;47.472;7.850;2023-02-15T10:34:48;97755.50;;;6.35;94.19
32761;BME280;19126;47.472;7.850;2023-02-15T10:37:46;97760.59;;;6.59;94.05
32761;BME280;19126;47.472;7.850;2023-02-15T10:40:33;97747.75;;;6.68;93.64
32761;BME280;19126;47.472;7.850;2023-02-15T10:43:29;97751.47;;;6.98;94.96
32761;BME280;19126;47.472;7.850;2023-02-15T10:46:07;97745.16;;;7.12;93.27
32761;BME280;19126;47.472;7.850;2023-02-15T10:48:57;97752.41;;;7.62;92.81
32761;BME280;19126;47.472;7.850;2023-02-15T10:51:42;97754.97;;;7.73;90.93
32761;BME280;19126;47.472;7.850;2023-02-15T10:54:22;97749.69;;;7.63;88.38
32761;BME280;19126;47.472;7.850;2023-02-15T10:57:02;97745.34;;;7.95;89.10
32761;BME280;19126;47.472;7.850;2023-02-15T10:59:44;97735.31;;;8.00;88.47
32761;BME280;19126;47.472;7.850;2023-02-15T11:02:23;97740.47;;;7.90;87.35
32761;BME280;19126;47.472;7.850;2023-02-15T11:05:02;97710.78;;;8.01;87.83
32761;BME280;19126;47.472;7.850;2023-02-15T11:07:45;97726.00;;;8.17;87.08
32761;BME280;19126;47.472;7.850;2023-02-15T11:10:25;97728.44;;;8.40;86.19
32761;BME280;19126;47.472;7.850;2023-02-15T11:12:54;97710.25;;;8.48;87.22
32761;BME280;19126;47.472;7.850;2023-02-15T11:15:30;97707.72;;;8.58;87.61
32761;BME280;19126;47.472;7.850;2023-02-15T11:18:04;97703.00;;;8.62;88.51
32761;BME280;19126;47.472;7.850;2023-02-15T11:20:37;97701.81;;;8.76;87.01
32761;BME280;19126;47.472;7.850;2023-02-15T11:23:09;97701.25;;;8.92;86.47
32761;BME280;19126;47.472;7.850;2023-02-15T11:25:41;97696.44;;;9.07;86.19
32761;BME280;19126;47.472;7.850;2023-02-15T11:28:17;97693.16;;;9.05;83.76
32761;BME280;19126;47.472;7.850;2023-02-15T11:30:54;97689.25;;;9.19;82.78
32761;BME280;19126;47.472;7.850;2023-02-15T11:33:24;97697.69;;;9.32;83.49
32761;BME280;19126;47.472;7.850;2023-02-15T11:35:53;97691.75;;;9.50;84.34
32761;BME280;19126;47.472;7.850;2023-02-15T11:38:30;97680.53;;;9.58;84.64
32761;BME280;19126;47.472;7.850;2023-02-15T11:41:01;97681.66;;;9.93;84.17
32761;BME280;19126;47.472;7.850;2023-02-15T11:43:34;97668.53;;;9.93;82.41
32761;BME280;19126;47.472;7.850;2023-02-15T11:46:07;97671.03;;;9.94;82.62
32761;BME280;19126;47.472;7.850;2023-02-15T11:48:37;97675.28;;;10.05;81.97
32761;BME280;19126;47.472;7.850;2023-02-15T11:51:09;97670.13;;;10.14;83.13
32761;BME280;19126;47.472;7.850;2023-02-15T11:53:43;97660.78;;;10.29;82.13
32761;BME280;19126;47.472;7.850;2023-02-15T11:56:18;97665.44;;;10.35;80.91
32761;BME280;19126;47.472;7.850;2023-02-15T11:58:55;97654.81;;;10.37;81.25
32761;BME280;19126;47.472;7.850;2023-02-15T12:01:28;97658.38;;;10.46;80.26
32761;BME280;19126;47.472;7.850;2023-02-15T12:04:04;97655.81;;;10.54;80.86
32761;BME280;19126;47.472;7.850;2023-02-15T12:06:38;97657.88;;;10.60;80.44
32761;BME280;19126;47.472;7.850;2023-02-15T12:09:23;97657.88;;;10.78;80.06
32761;BME280;19126;47.472;7.850;2023-02-15T12:11:55;97654.66;;;10.84;77.61
32761;BME280;19126;47.472;7.850;2023-02-15T12:14:47;97646.94;;;10.83;77.50
32761;BME280;19126;47.472;7.850;2023-02-15T12:17:17;97649.47;;;10.93;76.70
32761;BME280;19126;47.472;7.850;2023-02-15T12:19:44;97654.97;;;10.99;76.13
32761;BME280;19126;47.472;7.850;2023-02-15T12:22:22;97647.47;;;11.05;75.12
32761;BME280;19126;47.472;7.850;2023-02-15T12:24:52;97640.50;;;11.22;74.35
32761;BME280;19126;47.472;7.850;2023-02-15T12:27:21;97640.06;;;11.26;72.12
32761;BME280;19126;47.472;7.850;2023-02-15T12:29:56;97632.91;;;11.37;70.73
32761;BME280;19126;47.472;7.850;2023-02-15T12:32:27;97629.38;;;11.28;69.86
32761;BME280;19126;47.472;7.850;2023-02-15T12:34:59;97622.88;;;11.40;70.68
32761;BME280;19126;47.472;7.850;2023-02-15T12:37:29;97622.84;;;11.58;70.75
32761;BME280;19126;47.472;7.850;2023-02-15T12:40:18;97620.56;;;11.64;69.81
32761;BME280;19126;47.472;7.850;2023-02-15T12:42:45;97617.50;;;11.77;70.01
32761;BME280;19126;47.472;7.850;2023-02-15T12:45:30;97617.38;;;11.86;70.04
32761;BME280;19126;47.472;7.850;2023-02-15T12:48:14;97615.44;;;11.97;70.50
32761;BME280;19126;47.472;7.850;2023-02-15T12:50:46;97611.56;;;12.01;69.47
32761;BME280;19126;47.472;7.850;2023-02-15T12:53:20;97609.25;;;12.06;68.40
32761;BME280;19126;47.472;7.850;2023-02-15T12:55:54;97607.66;;;12.13;68.17
32761;BME280;19126;47.472;7.850;2023-02-15T12:58:30;97597.97;;;12.22;66.99
32761;BME280;19126;47.472;7.850;2023-02-15T13:01:10;97599.13;;;12.28;66.23
32761;BME280;19126;47.472;7.850;2023-02-15T13:03:55;97590.75;;;12.24;62.72
32761;BME280;19126;47.472;7.850;2023-02-15T13:06:25;97593.22;;;12.34;61.31
32761;BME280;19126;47.472;7.850;2023-02-15T13:09:06;97596.69;;;12.35;59.88
32761;BME280;19126;47.472;7.850;2023-02-15T13:11:41;97594.22;;;12.41;61.00
32761;BME280;19126;47.472;7.850;2023-02-15T13:14:28;97588.47;;;12.38;60.90
32761;BME280;19126;47.472;7.850;2023-02-15T13:17:03;97596.06;;;12.49;61.56
32761;BME280;19126;47.472;7.850;2023-02-15T13:19:37;97592.44;;;12.50;60.55
32761;BME280;19126;47.472;7.850;2023-02-15T13:22:12;97588.16;;;12.49;58.50
32761;BME280;19126;47.472;7.850;2023-02-15T13:24:43;97587.97;;;12.51;58.66
32761;BME280;19126;47.472;7.850;2023-02-15T13:27:13;97579.41;;;12.49;58.03
32761;BME280;19126;47.472;7.850;2023-02-15T13:29:43;97582.22;;;12.47;56.92
32761;BME280;19126;47.472;7.850;2023-02-15T13:32:14;97582.03;;;12.49;57.45
32761;BME280;19126;47.472;7.850;2023-02-15T13:35:04;97577.75;;;12.48;57.42
32761;BME280;19126;47.472;7.850;2023-02-15T13:37:55;97571.16;;;12.52;57.09
32761;BME280;19126;47.472;7.850;2023-02-15T13:40:29;97569.72;;;12.57;56.86
32761;BME280;19126;47.472;7.850;2023-02-15T13:43:02;97564.44;;;12.57;56.54
32761;BME280;19126;47.472;7.850;2023-02-15T13:45:43;97564.25;;;12.59;56.80
32761;BME280;19126;47.472;7.850;2023-02-15T13:48:20;97559.31;;;12.56;56.47
32761;BME280;19126;47.472;7.850;2023-02-15T13:51:05;97566.09;;;12.58;55.87
32761;BME280;19126;47.472;7.850;2023-02-15T13:53:42;97562.13;;;12.63;54.81
32761;BME280;19126;47.472;7.850;2023-02-15T13:56:26;97557.34;;;12.66;53.90
32761;BME280;19126;47.472;7.850;2023-02-15T13:59:25;97551.25;;;12.66;53.63
32761;BME280;19126;47.472;7.850;2023-02-15T14:02:04;97559.84;;;12.68;52.25
32761;BME280;19126;47.472;7.850;2023-02-15T14:04:52;97554.72;;;12.66;52.97
32761;BME280;19126;47.472;7.850;2023-02-15T14:07:39;97551.94;;;12.68;52.48
32761;BME280;19126;47.472;7.850;2023-02-15T14:10:31;97550.28;;;12.67;52.22
32761;BME280;19126;47.472;7.850;2023-02-15T14:13:12;97552.41;;;12.63;52.10
32761;BME280;19126;47.472;7.850;2023-02-15T14:15:50;97552.25;;;12.56;55.45
32761;BME280;19126;47.472;7.850;2023-02-15T14:18:27;97551.41;;;12.48;57.42
32761;BME280;19126;47.472;7.850;2023-02-15T14:21:05;97556.50;;;12.41;57.22
32761;BME280;19126;47.472;7.850;2023-02-15T14:24:09;97552.56;;;12.37;53.65
32761;BME280;19126;47.472;7.850;2023-02-15T14:26:47;97549.25;;;12.35;52.38